sensor_id;sensor_type;location;lat;lon;timestamp;P1;durP1;ratioP1;P2;durP2;ratioP2
22916;SDS011;11624;53.250;7.456;2024-03-29T00:01:23;5.53;;;1.58;;
22916;SDS011;11624;53.250;7.456;2024-03-29T00:03:49;6.57;;;1.52;;
22916;SDS011;11624;53.250;7.456;2024-03-29T00:06:16;3.40;;;1.13;;
22916;SDS011;11624;53.250;7.456;2024-03-29T00:08:42;6.80;;;1.50;;
22916;SDS011;11624;53.250;7.456;2024-03-29T00:11:08;5.45;;;1.75;;
22916;SDS011;11624;53.250;7.456;2024-03-29T00:13:35;5.18;;;1.40;;
22916;SDS011;11624;53.250;7.456;2024-03-29T00:16:01;10.95;;;1.60;;
22916;SDS011;11624;53.250;7.456;2024-03-29T00:18:28;5.85;;;1.30;;
22916;SDS011;11624;53.250;7.456;2024-03-29T00:20:55;5.30;;;1.30;;
22916;SDS011;11624;53.250;7.456;2024-03-29T00:23:21;3.03;;;0.98;;
22916;SDS011;11624;53.250;7.456;2024-03-29T00:25:47;4.70;;;1.20;;
22916;SDS011;11624;53.250;7.456;2024-03-29T00:28:13;6.47;;;1.15;;
22916;SDS011;11624;53.250;7.456;2024-03-29T00:30:40;4.88;;;1.00;;
22916;SDS011;11624;53.250;7.456;2024-03-29T00:33:06;5.28;;;1.30;;
22916;SDS011;11624;53.250;7.456;2024-03-29T00:35:33;2.75;;;1.02;;
22916;SDS011;11624;53.250;7.456;2024-03-29T00:38:00;3.15;;;0.82;;
22916;SDS011;11624;53.250;7.456;2024-03-29T00:40:26;8.52;;;1.45;;
22916;SDS011;11624;53.250;7.456;2024-03-29T00:42:52;7.32;;;1.33;;
22916;SDS011;11624;53.250;7.456;2024-03-29T00:45:18;7.07;;;1.17;;
22916;SDS011;11624;53.250;7.456;2024-03-29T00:47:45;6.50;;;1.45;;
22916;SDS011;11624;53.250;7.456;2024-03-29T00:50:11;5.45;;;1.17;;
22916;SDS011;11624;53.250;7.456;2024-03-29T00:52:38;7.13;;;1.05;;
22916;SDS011;11624;53.250;7.456;2024-03-29T00:55:05;5.82;;;1.13;;
22916;SDS011;11624;53.250;7.456;2024-03-29T00:57:31;4.47;;;1.52;;
22916;SDS011;11624;53.250;7.456;2024-03-29T00:59:57;7.05;;;1.33;;
22916;SDS011;11624;53.250;7.456;2024-03-29T01:02:24;4.85;;;1.00;;
22916;SDS011;11624;53.250;7.456;2024-03-29T01:04:50;3.58;;;1.10;;
22916;SDS011;11624;53.250;7.456;2024-03-29T01:07:17;5.28;;;1.02;;
22916;SDS011;11624;53.250;7.456;2024-03-29T01:09:44;2.72;;;1.20;;
22916;SDS011;11624;53.250;7.456;2024-03-29T01:12:10;9.45;;;1.40;;
22916;SDS011;11624;53.250;7.456;2024-03-29T01:14:37;5.32;;;1.15;;
22916;SDS011;11624;53.250;7.456;2024-03-29T01:17:03;5.07;;;1.05;;
22916;SDS011;11624;53.250;7.456;2024-03-29T01:19:29;3.70;;;1.27;;
22916;SDS011;11624;53.250;7.456;2024-03-29T01:21:56;6.25;;;1.13;;
22916;SDS011;11624;53.250;7.456;2024-03-29T01:24:22;5.50;;;1.33;;
22916;SDS011;11624;53.250;7.456;2024-03-29T01:26:50;5.68;;;1.08;;
22916;SDS011;11624;53.250;7.456;2024-03-29T01:29:16;5.35;;;1.83;;
22916;SDS011;11624;53.250;7.456;2024-03-29T01:31:42;4.28;;;1.27;;
22916;SDS011;11624;53.250;7.456;2024-03-29T01:34:08;3.42;;;0.90;;
22916;SDS011;11624;53.250;7.456;2024-03-29T01:36:34;6.00;;;1.27;;
22916;SDS011;11624;53.250;7.456;2024-03-29T01:39:01;4.28;;;0.98;;
22916;SDS011;11624;53.250;7.456;2024-03-29T01:41:27;3.55;;;0.90;;
22916;SDS011;11624;53.250;7.456;2024-03-29T01:43:55;5.53;;;1.25;;
22916;SDS011;11624;53.250;7.456;2024-03-29T01:46:23;5.63;;;1.23;;
22916;SDS011;11624;53.250;7.456;2024-03-29T01:48:58;3.75;;;1.30;;
22916;SDS011;11624;53.250;7.456;2024-03-29T01:51:25;5.07;;;1.50;;
22916;SDS011;11624;53.250;7.456;2024-03-29T01:53:53;8.48;;;1.42;;
22916;SDS011;11624;53.250;7.456;2024-03-29T01:56:21;12.23;;;1.15;;
22916;SDS011;11624;53.250;7.456;2024-03-29T01:58:49;4.53;;;1.27;;
22916;SDS011;11624;53.250;7.456;2024-03-29T02:01:20;7.47;;;1.15;;
22916;SDS011;11624;53.250;7.456;2024-03-29T02:03:48;3.63;;;1.08;;
22916;SDS011;11624;53.250;7.456;2024-03-29T02:06:17;4.65;;;1.00;;
22916;SDS011;11624;53.250;7.456;2024-03-29T02:08:45;7.85;;;1.65;;
22916;SDS011;11624;53.250;7.456;2024-03-29T02:11:15;6.13;;;1.38;;
22916;SDS011;11624;53.250;7.456;2024-03-29T02:13:42;8.35;;;1.67;;
22916;SDS011;11624;53.250;7.456;2024-03-29T02:16:11;5.57;;;1.45;;
22916;SDS011;11624;53.250;7.456;2024-03-29T02:18:40;2.53;;;0.93;;
22916;SDS011;11624;53.250;7.456;2024-03-29T02:21:07;4.78;;;1.30;;
22916;SDS011;11624;53.250;7.456;2024-03-29T02:23:36;8.32;;;1.50;;
22916;SDS011;11624;53.250;7.456;2024-03-29T02:26:07;8.57;;;1.58;;
22916;SDS011;11624;53.250;7.456;2024-03-29T02:28:34;7.35;;;1.33;;
22916;SDS011;11624;53.250;7.456;2024-03-29T02:31:01;5.45;;;1.20;;
22916;SDS011;11624;53.250;7.456;2024-03-29T02:33:29;4.82;;;0.95;;
22916;SDS011;11624;53.250;7.456;2024-03-29T02:35:56;6.13;;;1.20;;
22916;SDS011;11624;53.250;7.456;2024-03-29T02:38:23;6.60;;;1.30;;
22916;SDS011;11624;53.250;7.456;2024-03-29T02:40:51;6.93;;;1.25;;
22916;SDS011;11624;53.250;7.456;2024-03-29T02:43:18;8.27;;;1.23;;
22916;SDS011;11624;53.250;7.456;2024-03-29T02:45:45;4.22;;;1.17;;
22916;SDS011;11624;53.250;7.456;2024-03-29T02:48:13;9.70;;;1.25;;
22916;SDS011;11624;53.250;7.456;2024-03-29T02:50:40;4.55;;;1.23;;
22916;SDS011;11624;53.250;7.456;2024-03-29T02:53:06;3.00;;;0.88;;
22916;SDS011;11624;53.250;7.456;2024-03-29T02:55:33;6.47;;;1.60;;
22916;SDS011;11624;53.250;7.456;2024-03-29T02:57:59;5.95;;;1.40;;
22916;SDS011;11624;53.250;7.456;2024-03-29T03:00:28;6.35;;;1.10;;
22916;SDS011;11624;53.250;7.456;2024-03-29T03:02:54;4.75;;;1.30;;
22916;SDS011;11624;53.250;7.456;2024-03-29T03:05:21;4.07;;;1.05;;
22916;SDS011;11624;53.250;7.456;2024-03-29T03:07:47;7.70;;;1.55;;
22916;SDS011;11624;53.250;7.456;2024-03-29T03:10:32;4.10;;;1.15;;
22916;SDS011;11624;53.250;7.456;2024-03-29T03:13:17;6.03;;;1.23;;
22916;SDS011;11624;53.250;7.456;2024-03-29T03:15:45;8.35;;;1.40;;
22916;SDS011;11624;53.250;7.456;2024-03-29T03:18:12;2.40;;;1.08;;
22916;SDS011;11624;53.250;7.456;2024-03-29T03:20:39;5.88;;;1.10;;
22916;SDS011;11624;53.250;7.456;2024-03-29T03:23:06;2.75;;;0.82;;
22916;SDS011;11624;53.250;7.456;2024-03-29T03:25:32;6.35;;;1.15;;
22916;SDS011;11624;53.250;7.456;2024-03-29T03:27:59;5.38;;;1.42;;
22916;SDS011;11624;53.250;7.456;2024-03-29T03:30:27;7.63;;;1.45;;
22916;SDS011;11624;53.250;7.456;2024-03-29T03:32:54;5.45;;;1.23;;
22916;SDS011;11624;53.250;7.456;2024-03-29T03:35:21;12.57;;;1.67;;
22916;SDS011;11624;53.250;7.456;2024-03-29T03:37:47;7.90;;;1.58;;
22916;SDS011;11624;53.250;7.456;2024-03-29T03:40:15;5.57;;;1.15;;
22916;SDS011;11624;53.250;7.456;2024-03-29T03:42:41;6.68;;;1.42;;
22916;SDS011;11624;53.250;7.456;2024-03-29T03:45:08;3.45;;;1.08;;
22916;SDS011;11624;53.250;7.456;2024-03-29T03:47:34;4.75;;;1.10;;
22916;SDS011;11624;53.250;7.456;2024-03-29T03:50:03;7.28;;;1.45;;
22916;SDS011;11624;53.250;7.456;2024-03-29T03:52:30;6.15;;;1.20;;
22916;SDS011;11624;53.250;7.456;2024-03-29T03:54:57;4.75;;;1.30;;
22916;SDS011;11624;53.250;7.456;2024-03-29T03:57:23;7.30;;;1.63;;
22916;SDS011;11624;53.250;7.456;2024-03-29T03:59:50;5.07;;;1.00;;
22916;SDS011;11624;53.250;7.456;2024-03-29T04:02:17;4.97;;;1.10;;
22916;SDS011;11624;53.250;7.456;2024-03-29T04:04:46;5.10;;;1.63;;
22916;SDS011;11624;53.250;7.456;2024-03-29T04:07:14;3.40;;;1.10;;
22916;SDS011;11624;53.250;7.456;2024-03-29T04:09:41;3.42;;;0.98;;
22916;SDS011;11624;53.250;7.456;2024-03-29T04:12:07;6.18;;;1.20;;
22916;SDS011;11624;53.250;7.456;2024-03-29T04:14:34;6.30;;;1.00;;
22916;SDS011;11624;53.250;7.456;2024-03-29T04:17:02;5.18;;;1.08;;
22916;SDS011;11624;53.250;7.456;2024-03-29T04:19:28;4.63;;;1.08;;
22916;SDS011;11624;53.250;7.456;2024-03-29T04:21:56;6.60;;;1.00;;
22916;SDS011;11624;53.250;7.456;2024-03-29T04:24:23;6.38;;;1.20;;
22916;SDS011;11624;53.250;7.456;2024-03-29T04:26:50;6.63;;;1.27;;
22916;SDS011;11624;53.250;7.456;2024-03-29T04:29:17;6.70;;;1.45;;
22916;SDS011;11624;53.250;7.456;2024-03-29T04:31:44;7.50;;;0.88;;
22916;SDS011;11624;53.250;7.456;2024-03-29T04:34:10;6.80;;;1.40;;
22916;SDS011;11624;53.250;7.456;2024-03-29T04:36:38;5.00;;;0.90;;
22916;SDS011;11624;53.250;7.456;2024-03-29T04:39:05;4.82;;;1.20;;
22916;SDS011;11624;53.250;7.456;2024-03-29T04:41:34;8.98;;;1.33;;
22916;SDS011;11624;53.250;7.456;2024-03-29T04:44:00;6.18;;;1.23;;
22916;SDS011;11624;53.250;7.456;2024-03-29T04:46:29;6.50;;;1.40;;
22916;SDS011;11624;53.250;7.456;2024-03-29T04:48:57;5.72;;;1.20;;
22916;SDS011;11624;53.250;7.456;2024-03-29T04:51:25;6.80;;;1.27;;
22916;SDS011;11624;53.250;7.456;2024-03-29T04:53:52;4.38;;;1.20;;
22916;SDS011;11624;53.250;7.456;2024-03-29T04:56:19;9.60;;;1.50;;
22916;SDS011;11624;53.250;7.456;2024-03-29T04:58:48;6.72;;;1.30;;
22916;SDS011;11624;53.250;7.456;2024-03-29T05:01:15;5.80;;;1.20;;
22916;SDS011;11624;53.250;7.456;2024-03-29T05:03:42;7.50;;;1.15;;
22916;SDS011;11624;53.250;7.456;2024-03-29T05:06:10;4.90;;;1.08;;
22916;SDS011;11624;53.250;7.456;2024-03-29T05:08:37;2.50;;;1.13;;
22916;SDS011;11624;53.250;7.456;2024-03-29T05:11:04;3.20;;;1.02;;
22916;SDS011;11624;53.250;7.456;2024-03-29T05:13:33;6.15;;;1.10;;
22916;SDS011;11624;53.250;7.456;2024-03-29T05:16:01;7.72;;;1.38;;
22916;SDS011;11624;53.250;7.456;2024-03-29T05:18:29;9.95;;;1.40;;
22916;SDS011;11624;53.250;7.456;2024-03-29T05:20:56;6.18;;;1.30;;
22916;SDS011;11624;53.250;7.456;2024-03-29T05:23:23;4.25;;;1.15;;
22916;SDS011;11624;53.250;7.456;2024-03-29T05:25:50;6.30;;;1.17;;
22916;SDS011;11624;53.250;7.456;2024-03-29T05:28:18;4.30;;;0.90;;
22916;SDS011;11624;53.250;7.456;2024-03-29T05:30:45;3.53;;;1.15;;
22916;SDS011;11624;53.250;7.456;2024-03-29T05:33:13;6.07;;;1.00;;
22916;SDS011;11624;53.250;7.456;2024-03-29T05:35:41;4.32;;;1.20;;
22916;SDS011;11624;53.250;7.456;2024-03-29T05:38:08;7.13;;;1.10;;
22916;SDS011;11624;53.250;7.456;2024-03-29T05:40:35;3.13;;;1.08;;
22916;SDS011;11624;53.250;7.456;2024-03-29T05:43:03;1.65;;;0.98;;
22916;SDS011;11624;53.250;7.456;2024-03-29T05:45:30;6.70;;;1.40;;
22916;SDS011;11624;53.250;7.456;2024-03-29T05:47:58;2.15;;;0.80;;
22916;SDS011;11624;53.250;7.456;2024-03-29T05:50:27;4.32;;;1.35;;
22916;SDS011;11624;53.250;7.456;2024-03-29T05:52:54;5.43;;;0.90;;
22916;SDS011;11624;53.250;7.456;2024-03-29T05:55:22;5.00;;;1.33;;
22916;SDS011;11624;53.250;7.456;2024-03-29T05:57:49;6.10;;;0.93;;
22916;SDS011;11624;53.250;7.456;2024-03-29T06:00:16;5.93;;;1.17;;
22916;SDS011;11624;53.250;7.456;2024-03-29T06:02:43;2.05;;;0.73;;
22916;SDS011;11624;53.250;7.456;2024-03-29T06:05:11;3.22;;;0.95;;
22916;SDS011;11624;53.250;7.456;2024-03-29T06:07:40;5.45;;;1.20;;
22916;SDS011;11624;53.250;7.456;2024-03-29T06:10:07;4.85;;;1.00;;
22916;SDS011;11624;53.250;7.456;2024-03-29T06:12:35;2.55;;;1.02;;
22916;SDS011;11624;53.250;7.456;2024-03-29T06:15:04;6.22;;;1.13;;
22916;SDS011;11624;53.250;7.456;2024-03-29T06:17:49;4.43;;;0.90;;
22916;SDS011;11624;53.250;7.456;2024-03-29T06:20:17;5.97;;;1.27;;
22916;SDS011;11624;53.250;7.456;2024-03-29T06:22:45;8.70;;;0.98;;
22916;SDS011;11624;53.250;7.456;2024-03-29T06:25:13;4.78;;;1.23;;
22916;SDS011;11624;53.250;7.456;2024-03-29T06:27:40;2.45;;;0.82;;
22916;SDS011;11624;53.250;7.456;2024-03-29T06:30:09;5.63;;;1.25;;
22916;SDS011;11624;53.250;7.456;2024-03-29T06:32:36;5.88;;;1.38;;
22916;SDS011;11624;53.250;7.456;2024-03-29T06:35:04;8.07;;;1.10;;
22916;SDS011;11624;53.250;7.456;2024-03-29T06:37:32;5.38;;;1.08;;
22916;SDS011;11624;53.250;7.456;2024-03-29T06:40:00;4.72;;;0.77;;
22916;SDS011;11624;53.250;7.456;2024-03-29T06:42:28;3.35;;;0.93;;
22916;SDS011;11624;53.250;7.456;2024-03-29T06:44:56;4.85;;;0.80;;
22916;SDS011;11624;53.250;7.456;2024-03-29T06:47:24;5.40;;;0.85;;
22916;SDS011;11624;53.250;7.456;2024-03-29T06:49:51;3.97;;;1.13;;
22916;SDS011;11624;53.250;7.456;2024-03-29T06:52:18;10.68;;;1.27;;
22916;SDS011;11624;53.250;7.456;2024-03-29T06:54:46;5.20;;;0.98;;
22916;SDS011;11624;53.250;7.456;2024-03-29T06:57:14;4.50;;;1.05;;
22916;SDS011;11624;53.250;7.456;2024-03-29T06:59:46;3.30;;;0.80;;
22916;SDS011;11624;53.250;7.456;2024-03-29T07:02:13;2.65;;;0.80;;
22916;SDS011;11624;53.250;7.456;2024-03-29T07:04:40;4.05;;;0.98;;
22916;SDS011;11624;53.250;7.456;2024-03-29T07:07:07;6.20;;;1.10;;
22916;SDS011;11624;53.250;7.456;2024-03-29T07:09:35;3.45;;;0.80;;
22916;SDS011;11624;53.250;7.456;2024-03-29T07:12:02;1.98;;;0.50;;
22916;SDS011;11624;53.250;7.456;2024-03-29T07:14:31;2.55;;;0.63;;
22916;SDS011;11624;53.250;7.456;2024-03-29T07:16:59;2.00;;;0.70;;
22916;SDS011;11624;53.250;7.456;2024-03-29T07:19:26;0.93;;;0.68;;
22916;SDS011;11624;53.250;7.456;2024-03-29T07:21:53;5.63;;;0.95;;
22916;SDS011;11624;53.250;7.456;2024-03-29T07:24:20;4.22;;;0.77;;
22916;SDS011;11624;53.250;7.456;2024-03-29T07:26:47;5.03;;;0.80;;
22916;SDS011;11624;53.250;7.456;2024-03-29T07:29:15;2.13;;;1.00;;
22916;SDS011;11624;53.250;7.456;2024-03-29T07:31:43;2.15;;;0.70;;
22916;SDS011;11624;53.250;7.456;2024-03-29T07:34:10;2.55;;;0.60;;
22916;SDS011;11624;53.250;7.456;2024-03-29T07:36:38;2.30;;;0.73;;
22916;SDS011;11624;53.250;7.456;2024-03-29T07:39:06;3.38;;;0.80;;
22916;SDS011;11624;53.250;7.456;2024-03-29T07:41:33;2.72;;;0.60;;
22916;SDS011;11624;53.250;7.456;2024-03-29T07:44:01;2.25;;;0.73;;
22916;SDS011;11624;53.250;7.456;2024-03-29T07:46:31;4.22;;;0.90;;
22916;SDS011;11624;53.250;7.456;2024-03-29T07:49:01;2.78;;;1.10;;
22916;SDS011;11624;53.250;7.456;2024-03-29T07:51:28;3.33;;;0.60;;
22916;SDS011;11624;53.250;7.456;2024-03-29T07:53:55;1.88;;;0.57;;
22916;SDS011;11624;53.250;7.456;2024-03-29T07:56:23;2.72;;;0.82;;
22916;SDS011;11624;53.250;7.456;2024-03-29T07:58:50;1.88;;;0.70;;
22916;SDS011;11624;53.250;7.456;2024-03-29T08:01:19;2.67;;;0.63;;
22916;SDS011;11624;53.250;7.456;2024-03-29T08:03:47;2.03;;;0.73;;
22916;SDS011;11624;53.250;7.456;2024-03-29T08:06:18;0.82;;;0.60;;
22916;SDS011;11624;53.250;7.456;2024-03-29T08:08:45;1.50;;;0.60;;
22916;SDS011;11624;53.250;7.456;2024-03-29T08:11:12;2.65;;;0.50;;
22916;SDS011;11624;53.250;7.456;2024-03-29T08:13:39;1.95;;;0.65;;
22916;SDS011;11624;53.250;7.456;2024-03-29T08:16:07;3.55;;;0.73;;
22916;SDS011;11624;53.250;7.456;2024-03-29T08:18:36;2.88;;;1.00;;
22916;SDS011;11624;53.250;7.456;2024-03-29T08:21:04;1.30;;;0.73;;
22916;SDS011;11624;53.250;7.456;2024-03-29T08:23:39;3.10;;;0.90;;
22916;SDS011;11624;53.250;7.456;2024-03-29T08:26:06;1.85;;;0.50;;
22916;SDS011;11624;53.250;7.456;2024-03-29T08:28:34;3.47;;;1.00;;
22916;SDS011;11624;53.250;7.456;2024-03-29T08:31:04;0.88;;;0.60;;
22916;SDS011;11624;53.250;7.456;2024-03-29T08:33:33;1.83;;;0.75;;
22916;SDS011;11624;53.250;7.456;2024-03-29T08:36:03;1.92;;;0.70;;
22916;SDS011;11624;53.250;7.456;2024-03-29T08:38:31;2.60;;;1.02;;
22916;SDS011;11624;53.250;7.456;2024-03-29T08:40:59;5.00;;;0.82;;
22916;SDS011;11624;53.250;7.456;2024-03-29T08:43:26;3.60;;;1.00;;
22916;SDS011;11624;53.250;7.456;2024-03-29T08:45:54;3.75;;;1.00;;
22916;SDS011;11624;53.250;7.456;2024-03-29T08:48:21;4.00;;;0.73;;
22916;SDS011;11624;53.250;7.456;2024-03-29T08:50:49;4.45;;;0.88;;
22916;SDS011;11624;53.250;7.456;2024-03-29T08:53:16;2.15;;;0.77;;
22916;SDS011;11624;53.250;7.456;2024-03-29T08:55:45;3.95;;;1.10;;
22916;SDS011;11624;53.250;7.456;2024-03-29T08:58:15;5.45;;;0.88;;
22916;SDS011;11624;53.250;7.456;2024-03-29T09:00:51;2.50;;;0.68;;
22916;SDS011;11624;53.250;7.456;2024-03-29T09:03:20;5.60;;;1.02;;
22916;SDS011;11624;53.250;7.456;2024-03-29T09:05:48;2.35;;;0.80;;
22916;SDS011;11624;53.250;7.456;2024-03-29T09:08:15;5.82;;;1.10;;
22916;SDS011;11624;53.250;7.456;2024-03-29T09:10:43;3.13;;;0.77;;
22916;SDS011;11624;53.250;7.456;2024-03-29T09:13:11;2.80;;;0.88;;
22916;SDS011;11624;53.250;7.456;2024-03-29T09:15:39;5.03;;;1.25;;
22916;SDS011;11624;53.250;7.456;2024-03-29T09:18:07;2.13;;;0.80;;
22916;SDS011;11624;53.250;7.456;2024-03-29T09:20:42;4.65;;;0.85;;
22916;SDS011;11624;53.250;7.456;2024-03-29T09:23:10;2.42;;;1.02;;
22916;SDS011;11624;53.250;7.456;2024-03-29T09:25:41;4.88;;;1.05;;
22916;SDS011;11624;53.250;7.456;2024-03-29T09:28:08;2.50;;;1.00;;
22916;SDS011;11624;53.250;7.456;2024-03-29T09:30:35;2.53;;;0.80;;
22916;SDS011;11624;53.250;7.456;2024-03-29T09:33:04;4.25;;;1.00;;
22916;SDS011;11624;53.250;7.456;2024-03-29T09:35:34;4.80;;;1.25;;
22916;SDS011;11624;53.250;7.456;2024-03-29T09:38:02;2.72;;;1.00;;
22916;SDS011;11624;53.250;7.456;2024-03-29T09:40:31;2.75;;;0.85;;
22916;SDS011;11624;53.250;7.456;2024-03-29T09:43:00;5.03;;;1.13;;
22916;SDS011;11624;53.250;7.456;2024-03-29T09:45:30;3.63;;;1.25;;
22916;SDS011;11624;53.250;7.456;2024-03-29T09:48:00;6.00;;;0.98;;
22916;SDS011;11624;53.250;7.456;2024-03-29T09:50:30;3.70;;;1.10;;
22916;SDS011;11624;53.250;7.456;2024-03-29T09:52:58;3.00;;;0.90;;
22916;SDS011;11624;53.250;7.456;2024-03-29T09:55:25;5.75;;;1.08;;
22916;SDS011;11624;53.250;7.456;2024-03-29T09:57:54;3.08;;;0.95;;
22916;SDS011;11624;53.250;7.456;2024-03-29T10:00:22;7.13;;;1.27;;
22916;SDS011;11624;53.250;7.456;2024-03-29T10:02:50;3.20;;;1.00;;
22916;SDS011;11624;53.250;7.456;2024-03-29T10:05:22;6.45;;;1.38;;
22916;SDS011;11624;53.250;7.456;2024-03-29T10:07:52;5.35;;;1.10;;
22916;SDS011;11624;53.250;7.456;2024-03-29T10:10:19;5.13;;;1.33;;
22916;SDS011;11624;53.250;7.456;2024-03-29T10:12:46;5.47;;;1.50;;
22916;SDS011;11624;53.250;7.456;2024-03-29T10:15:13;3.60;;;1.30;;
22916;SDS011;11624;53.250;7.456;2024-03-29T10:17:44;3.38;;;1.10;;
22916;SDS011;11624;53.250;7.456;2024-03-29T10:20:15;3.10;;;1.08;;
22916;SDS011;11624;53.250;7.456;2024-03-29T10:22:43;4.20;;;1.02;;
22916;SDS011;11624;53.250;7.456;2024-03-29T10:25:12;4.25;;;1.15;;
22916;SDS011;11624;53.250;7.456;2024-03-29T10:27:39;3.92;;;1.15;;
22916;SDS011;11624;53.250;7.456;2024-03-29T10:30:07;4.57;;;1.10;;
22916;SDS011;11624;53.250;7.456;2024-03-29T10:32:37;2.78;;;1.10;;
22916;SDS011;11624;53.250;7.456;2024-03-29T10:35:05;4.70;;;1.15;;
22916;SDS011;11624;53.250;7.456;2024-03-29T10:37:33;2.38;;;1.00;;
22916;SDS011;11624;53.250;7.456;2024-03-29T10:40:05;6.43;;;1.40;;
22916;SDS011;11624;53.250;7.456;2024-03-29T10:42:36;4.47;;;1.33;;
22916;SDS011;11624;53.250;7.456;2024-03-29T10:45:04;5.25;;;1.40;;
22916;SDS011;11624;53.250;7.456;2024-03-29T10:47:33;5.38;;;1.30;;
22916;SDS011;11624;53.250;7.456;2024-03-29T10:50:00;3.83;;;1.52;;
22916;SDS011;11624;53.250;7.456;2024-03-29T10:52:30;5.40;;;1.45;;
22916;SDS011;11624;53.250;7.456;2024-03-29T10:54:58;5.13;;;1.25;;
22916;SDS011;11624;53.250;7.456;2024-03-29T10:57:25;4.05;;;1.23;;
22916;SDS011;11624;53.250;7.456;2024-03-29T10:59:57;4.47;;;1.42;;
22916;SDS011;11624;53.250;7.456;2024-03-29T11:02:33;5.30;;;1.45;;
22916;SDS011;11624;53.250;7.456;2024-03-29T11:05:09;5.95;;;1.60;;
22916;SDS011;11624;53.250;7.456;2024-03-29T11:07:39;5.63;;;1.58;;
22916;SDS011;11624;53.250;7.456;2024-03-29T11:10:11;3.00;;;1.20;;
22916;SDS011;11624;53.250;7.456;2024-03-29T11:12:52;4.57;;;1.55;;
22916;SDS011;11624;53.250;7.456;2024-03-29T11:15:29;4.90;;;1.52;;
22916;SDS011;11624;53.250;7.456;2024-03-29T11:17:57;7.55;;;1.70;;
22916;SDS011;11624;53.250;7.456;2024-03-29T11:20:25;4.85;;;1.20;;
22916;SDS011;11624;53.250;7.456;2024-03-29T11:23:01;4.88;;;1.63;;
22916;SDS011;11624;53.250;7.456;2024-03-29T11:25:38;2.25;;;1.30;;
22916;SDS011;11624;53.250;7.456;2024-03-29T11:28:06;4.07;;;1.30;;
22916;SDS011;11624;53.250;7.456;2024-03-29T11:30:43;4.50;;;1.48;;
22916;SDS011;11624;53.250;7.456;2024-03-29T11:33:28;6.00;;;1.25;;
22916;SDS011;11624;53.250;7.456;2024-03-29T11:35:57;2.70;;;1.13;;
22916;SDS011;11624;53.250;7.456;2024-03-29T11:38:31;5.28;;;1.45;;
22916;SDS011;11624;53.250;7.456;2024-03-29T11:41:01;6.40;;;1.50;;
22916;SDS011;11624;53.250;7.456;2024-03-29T11:43:29;4.13;;;1.10;;
22916;SDS011;11624;53.250;7.456;2024-03-29T11:45:59;4.68;;;1.55;;
22916;SDS011;11624;53.250;7.456;2024-03-29T11:48:27;4.38;;;1.30;;
22916;SDS011;11624;53.250;7.456;2024-03-29T11:50:56;5.65;;;1.60;;
22916;SDS011;11624;53.250;7.456;2024-03-29T11:53:24;9.88;;;2.35;;
22916;SDS011;11624;53.250;7.456;2024-03-29T11:55:53;5.40;;;1.92;;
22916;SDS011;11624;53.250;7.456;2024-03-29T11:58:21;5.78;;;1.60;;
22916;SDS011;11624;53.250;7.456;2024-03-29T12:00:49;5.82;;;1.83;;
22916;SDS011;11624;53.250;7.456;2024-03-29T12:03:19;7.50;;;1.95;;
22916;SDS011;11624;53.250;7.456;2024-03-29T12:05:49;7.10;;;2.00;;
22916;SDS011;11624;53.250;7.456;2024-03-29T12:08:20;8.27;;;2.38;;
22916;SDS011;11624;53.250;7.456;2024-03-29T12:10:48;4.20;;;1.95;;
22916;SDS011;11624;53.250;7.456;2024-03-29T12:13:16;5.40;;;1.90;;
22916;SDS011;11624;53.250;7.456;2024-03-29T12:15:44;7.90;;;2.03;;
22916;SDS011;11624;53.250;7.456;2024-03-29T12:18:11;4.85;;;1.90;;
22916;SDS011;11624;53.250;7.456;2024-03-29T12:20:43;7.40;;;2.60;;
22916;SDS011;11624;53.250;7.456;2024-03-29T12:23:15;7.43;;;2.40;;
22916;SDS011;11624;53.250;7.456;2024-03-29T12:25:43;7.28;;;2.72;;
22916;SDS011;11624;53.250;7.456;2024-03-29T12:28:12;4.78;;;2.20;;
22916;SDS011;11624;53.250;7.456;2024-03-29T12:30:41;7.72;;;2.80;;
22916;SDS011;11624;53.250;7.456;2024-03-29T12:33:11;6.95;;;2.45;;
22916;SDS011;11624;53.250;7.456;2024-03-29T12:35:41;6.20;;;2.58;;
22916;SDS011;11624;53.250;7.456;2024-03-29T12:38:11;7.50;;;2.67;;
22916;SDS011;11624;53.250;7.456;2024-03-29T12:40:40;8.15;;;2.88;;
22916;SDS011;11624;53.250;7.456;2024-03-29T12:43:09;6.72;;;2.60;;
22916;SDS011;11624;53.250;7.456;2024-03-29T12:45:38;6.28;;;2.60;;
22916;SDS011;11624;53.250;7.456;2024-03-29T12:48:09;7.45;;;2.70;;
22916;SDS011;11624;53.250;7.456;2024-03-29T12:50:39;11.65;;;2.80;;
22916;SDS011;11624;53.250;7.456;2024-03-29T12:53:09;7.35;;;3.13;;
22916;SDS011;11624;53.250;7.456;2024-03-29T12:55:39;7.20;;;2.88;;
22916;SDS011;11624;53.250;7.456;2024-03-29T12:58:09;6.63;;;2.60;;
22916;SDS011;11624;53.250;7.456;2024-03-29T13:00:37;6.05;;;2.33;;
22916;SDS011;11624;53.250;7.456;2024-03-29T13:03:05;5.55;;;2.67;;
22916;SDS011;11624;53.250;7.456;2024-03-29T13:05:32;5.63;;;2.65;;
22916;SDS011;11624;53.250;7.456;2024-03-29T13:08:00;9.07;;;2.60;;
22916;SDS011;11624;53.250;7.456;2024-03-29T13:10:30;7.45;;;3.25;;
22916;SDS011;11624;53.250;7.456;2024-03-29T13:12:57;5.82;;;2.40;;
22916;SDS011;11624;53.250;7.456;2024-03-29T13:15:25;6.13;;;2.95;;
22916;SDS011;11624;53.250;7.456;2024-03-29T13:17:53;9.55;;;2.72;;
22916;SDS011;11624;53.250;7.456;2024-03-29T13:20:22;7.18;;;2.90;;
22916;SDS011;11624;53.250;7.456;2024-03-29T13:22:50;7.10;;;2.70;;
22916;SDS011;11624;53.250;7.456;2024-03-29T13:25:20;5.45;;;2.58;;
22916;SDS011;11624;53.250;7.456;2024-03-29T13:27:48;5.10;;;2.28;;
22916;SDS011;11624;53.250;7.456;2024-03-29T13:30:19;8.15;;;2.85;;
22916;SDS011;11624;53.250;7.456;2024-03-29T13:32:47;8.52;;;2.90;;
22916;SDS011;11624;53.250;7.456;2024-03-29T13:35:15;5.82;;;2.60;;
22916;SDS011;11624;53.250;7.456;2024-03-29T13:37:44;6.25;;;2.60;;
22916;SDS011;11624;53.250;7.456;2024-03-29T13:40:12;8.35;;;2.70;;
22916;SDS011;11624;53.250;7.456;2024-03-29T13:42:40;7.68;;;2.58;;
22916;SDS011;11624;53.250;7.456;2024-03-29T13:45:09;9.63;;;3.28;;
22916;SDS011;11624;53.250;7.456;2024-03-29T13:47:36;9.50;;;3.05;;
22916;SDS011;11624;53.250;7.456;2024-03-29T13:50:04;7.60;;;2.65;;
22916;SDS011;11624;53.250;7.456;2024-03-29T13:52:30;9.23;;;2.83;;
22916;SDS011;11624;53.250;7.456;2024-03-29T13:54:59;10.05;;;3.00;;
22916;SDS011;11624;53.250;7.456;2024-03-29T13:57:26;5.80;;;2.92;;
22916;SDS011;11624;53.250;7.456;2024-03-29T13:59:53;5.70;;;2.50;;
22916;SDS011;11624;53.250;7.456;2024-03-29T14:02:22;5.50;;;2.72;;
22916;SDS011;11624;53.250;7.456;2024-03-29T14:04:51;6.10;;;2.75;;
22916;SDS011;11624;53.250;7.456;2024-03-29T14:07:18;4.85;;;2.40;;
22916;SDS011;11624;53.250;7.456;2024-03-29T14:09:46;8.10;;;2.67;;
22916;SDS011;11624;53.250;7.456;2024-03-29T14:12:13;7.75;;;2.50;;
22916;SDS011;11624;53.250;7.456;2024-03-29T14:14:42;6.80;;;2.40;;
22916;SDS011;11624;53.250;7.456;2024-03-29T14:17:12;5.55;;;2.08;;
22916;SDS011;11624;53.250;7.456;2024-03-29T14:19:41;6.57;;;2.45;;
22916;SDS011;11624;53.250;7.456;2024-03-29T14:22:09;5.93;;;2.30;;
22916;SDS011;11624;53.250;7.456;2024-03-29T14:24:37;4.40;;;1.90;;
22916;SDS011;11624;53.250;7.456;2024-03-29T14:27:05;8.20;;;2.25;;
22916;SDS011;11624;53.250;7.456;2024-03-29T14:29:32;3.33;;;1.90;;
22916;SDS011;11624;53.250;7.456;2024-03-29T14:32:00;3.78;;;1.83;;
22916;SDS011;11624;53.250;7.456;2024-03-29T14:34:28;5.75;;;1.95;;
22916;SDS011;11624;53.250;7.456;2024-03-29T14:36:58;3.75;;;1.83;;
22916;SDS011;11624;53.250;7.456;2024-03-29T14:39:26;4.22;;;1.88;;
22916;SDS011;11624;53.250;7.456;2024-03-29T14:41:53;3.58;;;2.00;;
22916;SDS011;11624;53.250;7.456;2024-03-29T14:44:23;4.80;;;1.88;;
22916;SDS011;11624;53.250;7.456;2024-03-29T14:46:51;5.20;;;1.80;;
22916;SDS011;11624;53.250;7.456;2024-03-29T14:49:18;7.18;;;2.40;;
22916;SDS011;11624;53.250;7.456;2024-03-29T14:51:45;4.95;;;2.03;;
22916;SDS011;11624;53.250;7.456;2024-03-29T14:54:14;5.50;;;2.10;;